Bellingham, WA

7:22 PM PST on November 26, 2014 (GMT -0800)
Columbia-Eldridge Marimba Palace | Change Station
CLOSE
Current Station
Personal Weather Station
Location: Bellingham, WA
Elevation: 97 ft
Nearby Weather Stations
Active Advisory: Areal Flood Watch, Wind Advisory Active Notice: Record Report

Elev 97 ft 48.76 °N, 122.50 °W | Updated 12 minutes ago

Overcast
Overcast
58.0 °F
Feels Like 58.0 °F
N
4.9
Wind Variable Wind from South
Gusts 4.9 mph

Today
High -- | Low -- °F
--% Chance of Precip.
Yesterday
High -- | Low -- °F
Precip. -- in
7:35 AM 4:19 PM
Waxing Crescent, 25% visible
Pressure 29.88 in
Visibility 10.0 miles
Clouds Overcast 2200 ft
Dew Point 53 °F
Humidity 83%
Rainfall 0.00 in
Snow Depth Not available.
UV 0 out of 12
Pollen .10 out of 12
Air Quality Not available.
Flu Activity Not available.
METAR KBLI 270253Z 14013G17KT 10SM -RA OVC022 14/11 A2985 RMK AO2 PK WND 14026/0221 RAB16 SLP116 P0000 60000 T01440106 56033

More Conditions Fewer Conditions

Pressure 29.88 in
Visibility 10.0 miles
Clouds Overcast 2200 ft
Dew Point 53 °F
Humidity 83%
Rainfall 0.00 in
Snow Depth Not available.
UV 0 out of 12
Pollen .10 out of 12
Air Quality Not available.
Flu Activity Not available.
METAR KBLI 270253Z 14013G17KT 10SM -RA OVC022 14/11 A2985 RMK AO2 PK WND 14026/0221 RAB16 SLP116 P0000 60000 T01440106 56033

More Conditions Fewer Conditions

10-Day Weather Forecast

Almanac

Astronomy

Nov. 26, 2014 Rise Set
Actual Time
Civil Twilight
Nautical Twilight
Astronomical Twilight
Moon
Length of Visible Light
Length of Day
Tomorrow will be .
, % of the Moon is Illuminated

Today's Extremes

State Highs State Lows

Community

WunderPhotos

Upload Photos

1,773,949 photos uploaded!

WunderBlogs® & News

Nearby

Air Quality

  Air Quality AQ Index Pollutant
Not available.

Snow Depth

Station Depth Elevation

Earthquake Activity

City Distance Mag. Time & Date
Minimum magnitude displayed is 2.5.

Coastal Water Temperatures

Place Temperature

Nearby Weather Stations